Time;durP1;ratioP1;P1;durP2;ratioP2;P2;SDS_P1;SDS_P2;PMS_P1;PMS_P2;Temp;Humidity;BMP_temperature;BMP_pressure;BME280_temperature;BME280_humidity;BME280_pressure;Samples;Min_cycle;Max_cycle;Signal;HPM_P1;HPM_P2
2023/02/25 00:00:09;;;;;;;;;26.00;22.00;25.20;33.20;;;;;;110231;1250;49013;-70
2023/02/25 00:02:57;;;;;;;;;29.00;23.00;25.30;33.10;;;;;;109982;1252;51219;-70
2023/02/25 00:05:25;;;;;;;;;25.33;21.00;25.40;33.10;;;;;;110182;1250;45777;-70
2023/02/25 00:07:53;;;;;;;;;23.00;20.33;25.50;33.20;;;;;;109857;1250;55571;-70
2023/02/25 00:10:20;;;;;;;;;27.00;22.00;25.60;33.30;;;;;;110127;1254;53987;-70
2023/02/25 00:12:47;;;;;;;;;26.33;22.33;25.70;33.20;;;;;;110070;1254;49474;-70
2023/02/25 00:15:14;;;;;;;;;23.00;22.00;25.80;33.00;;;;;;110063;1250;48973;-70
2023/02/25 00:17:42;;;;;;;;;26.00;21.00;25.90;33.00;;;;;;109967;1254;45499;-70
2023/02/25 00:20:12;;;;;;;;;27.00;21.00;26.00;33.20;;;;;;110174;1250;55417;-70
2023/02/25 00:22:39;;;;;;;;;27.67;24.33;26.10;33.00;;;;;;110207;1254;53674;-70
2023/02/25 00:25:07;;;;;;;;;25.00;21.00;26.20;33.00;;;;;;110093;1250;49753;-70
2023/02/25 00:27:35;;;;;;;;;22.67;20.33;26.30;33.00;;;;;;109875;1254;49555;-70
2023/02/25 00:30:04;;;;;;;;;22.00;19.00;26.50;33.10;;;;;;110062;1254;45299;-69
2023/02/25 00:32:31;;;;;;;;;24.00;23.00;26.50;33.00;;;;;;110376;1254;55259;-69
2023/02/25 00:34:58;;;;;;;;;24.00;23.00;26.60;33.00;;;;;;110221;1250;55138;-69
2023/02/25 00:37:25;;;;;;;;;19.00;17.00;26.70;33.00;;;;;;110020;1250;50422;-71
2023/02/25 00:39:52;;;;;;;;;23.00;20.00;26.80;33.10;;;;;;110235;1250;49948;-70
2023/02/25 00:42:19;;;;;;;;;21.00;17.00;26.80;33.00;;;;;;110312;1250;46637;-70
2023/02/25 00:44:49;;;;;;;;;21.00;18.50;26.90;33.00;;;;;;110286;1251;57166;-69
2023/02/25 00:47:18;;;;;;;;;20.00;19.00;26.90;33.00;;;;;;110046;1254;53961;-69
2023/02/25 00:49:46;;;;;;;;;18.00;16.00;26.90;33.00;;;;;;110248;1250;49024;-68
2023/02/25 00:52:14;;;;;;;;;21.00;18.33;27.00;33.00;;;;;;110023;1254;49382;-69
2023/02/25 00:54:42;;;;;;;;;22.00;17.33;27.10;33.00;;;;;;110302;1249;46709;-69
2023/02/25 00:57:09;;;;;;;;;17.25;15.75;27.10;33.00;;;;;;109965;1254;55394;-69
2023/02/25 00:59:36;;;;;;;;;21.25;19.25;27.10;33.20;;;;;;110041;1250;54237;-69
2023/02/25 01:02:03;;;;;;;;;18.00;16.00;27.10;32.90;;;;;;110101;1254;50074;-69
2023/02/25 01:04:30;;;;;;;;;19.00;18.00;27.10;32.90;;;;;;110239;1254;49842;-69
2023/02/25 01:06:57;;;;;;;;;21.67;20.00;27.10;32.90;;;;;;109959;1254;45243;-69
2023/02/25 01:09:24;;;;;;;;;22.00;20.00;27.10;32.90;;;;;;110016;1253;56164;-71
2023/02/25 01:11:51;;;;;;;;;23.00;20.00;27.10;32.40;;;;;;110033;1254;54673;-69
2023/02/25 01:14:21;;;;;;;;;19.00;17.00;27.10;32.90;;;;;;110056;1254;49323;-69
2023/02/25 01:16:49;;;;;;;;;23.00;18.00;27.00;32.80;;;;;;110027;1250;49608;-70
2023/02/25 01:19:19;;;;;;;;;21.50;19.50;27.00;33.10;;;;;;110136;1254;46015;-69
2023/02/25 01:21:48;;;;;;;;;21.00;18.00;27.00;32.80;;;;;;110181;1252;55572;-70
2023/02/25 01:24:21;;;;;;;;;21.00;19.67;27.00;32.80;;;;;;110200;1251;54611;-69
2023/02/25 01:26:51;;;;;;;;;23.00;21.00;26.90;32.70;;;;;;109826;1250;49678;-70
2023/02/25 01:29:21;;;;;;;;;23.50;21.00;26.90;32.80;;;;;;110069;1254;48879;-70
2023/02/25 01:31:54;;;;;;;;;19.00;18.00;26.90;32.70;;;;;;110142;1251;45225;-70
2023/02/25 01:34:23;;;;;;;;;22.25;19.75;26.80;32.70;;;;;;109892;1255;55736;-70
2023/02/25 01:36:50;;;;;;;;;20.33;19.33;26.80;32.90;;;;;;110043;1250;53392;-69
2023/02/25 01:39:18;;;;;;;;;20.00;19.00;26.70;32.60;;;;;;110189;1254;49632;-69
2023/02/25 01:41:49;;;;;;;;;21.00;19.00;26.70;32.60;;;;;;110194;1250;49169;-68
2023/02/25 01:44:18;;;;;;;;;23.50;22.50;26.70;32.60;;;;;;110136;1250;45321;-70
2023/02/25 01:46:48;;;;;;;;;20.00;18.00;26.60;33.00;;;;;;109921;1250;55531;-73
2023/02/25 01:49:32;;;;;;;;;19.00;18.00;26.60;33.20;;;;;;110138;1251;54205;-73
2023/02/25 01:52:09;;;;;;;;;22.00;19.00;26.50;32.50;;;;;;110280;1250;49180;-70
2023/02/25 01:54:37;;;;;;;;;19.50;17.50;26.50;32.70;;;;;;110247;1250;49215;-71
2023/02/25 01:57:09;;;;;;;;;18.00;16.50;26.50;32.60;;;;;;109932;1253;45498;-69
2023/02/25 01:59:36;;;;;;;;;20.00;19.00;26.40;32.50;;;;;;110061;1250;56312;-68
2023/02/25 02:02:04;;;;;;;;;19.00;17.50;26.40;32.50;;;;;;109975;1253;54057;-69
2023/02/25 02:04:31;;;;;;;;;21.50;19.00;26.40;32.70;;;;;;110107;1250;49493;-70
2023/02/25 02:06:58;;;;;;;;;22.00;18.00;26.30;32.60;;;;;;109939;1251;49008;-70
2023/02/25 02:09:26;;;;;;;;;21.00;18.00;26.20;32.00;;;;;;110151;1254;46074;-72
2023/02/25 02:12:01;;;;;;;;;19.00;17.00;26.20;32.40;;;;;;110356;1254;55782;-70
2023/02/25 02:14:35;;;;;;;;;20.00;18.00;26.20;32.40;;;;;;110184;1251;54096;-69
2023/02/25 02:17:23;;;;;;;;;18.00;16.00;26.10;32.90;;;;;;110188;1254;49311;-70
2023/02/25 02:20:12;;;;;;;;;19.00;17.50;26.10;32.50;;;;;;110300;1254;49750;-70
2023/02/25 02:23:13;;;;;;;;;21.00;20.00;26.00;32.40;;;;;;110484;1254;45410;-69
2023/02/25 02:26:03;;;;;;;;;23.67;19.67;25.90;32.50;;;;;;110289;1250;55865;-71
2023/02/25 02:28:46;;;;;;;;;20.50;18.50;25.90;32.40;;;;;;110374;1254;54876;-72
2023/02/25 02:31:31;;;;;;;;;20.33;17.00;25.90;32.30;;;;;;110251;1250;49958;-68
2023/02/25 02:34:05;;;;;;;;;21.00;18.00;25.90;32.30;;;;;;110108;1254;49996;-65
2023/02/25 02:36:38;;;;;;;;;20.00;18.00;25.80;32.30;;;;;;109952;1255;45762;-66
2023/02/25 02:39:23;;;;;;;;;21.00;20.00;25.70;32.30;;;;;;110060;1254;57102;-69
2023/02/25 02:42:01;;;;;;;;;23.00;20.00;25.70;32.40;;;;;;110086;1249;54011;-66
2023/02/25 02:45:01;;;;;;;;;20.33;18.00;25.60;32.50;;;;;;110109;1254;52351;-68
2023/02/25 02:47:34;;;;;;;;;19.00;18.00;25.60;32.40;;;;;;110530;1254;49791;-67
2023/02/25 02:50:09;;;;;;;;;18.00;17.00;25.50;32.40;;;;;;110209;1254;46253;-68
2023/02/25 02:52:42;;;;;;;;;22.00;20.00;25.50;32.40;;;;;;110105;1256;56544;-68
2023/02/25 02:55:21;;;;;;;;;18.00;16.00;25.50;32.30;;;;;;110285;1254;54191;-67
2023/02/25 02:57:57;;;;;;;;;19.00;18.00;25.40;32.30;;;;;;110582;1254;49732;-67
2023/02/25 03:00:28;;;;;;;;;23.00;17.00;25.40;32.40;;;;;;110176;1250;49165;-67
2023/02/25 03:03:02;;;;;;;;;17.33;16.67;25.40;32.30;;;;;;110176;1250;45217;-68
2023/02/25 03:05:30;;;;;;;;;21.00;20.00;25.30;32.40;;;;;;110270;1250;55345;-68
2023/02/25 03:08:04;;;;;;;;;22.00;20.50;25.30;32.40;;;;;;109990;1253;54728;-68
2023/02/25 03:10:32;;;;;;;;;19.00;18.00;25.30;32.40;;;;;;110198;1254;50805;-67
2023/02/25 03:12:58;;;;;;;;;22.00;20.00;25.20;32.40;;;;;;110238;1254;49225;-67
2023/02/25 03:15:28;;;;;;;;;18.00;15.00;25.20;32.60;;;;;;110375;1254;45684;-67
2023/02/25 03:18:06;;;;;;;;;21.00;20.00;25.10;32.40;;;;;;110012;1254;55908;-67
2023/02/25 03:20:39;;;;;;;;;22.00;19.00;25.10;32.50;;;;;;110283;1254;54742;-68
2023/02/25 03:23:09;;;;;;;;;21.00;18.00;25.00;32.40;;;;;;110234;1254;49445;-67
2023/02/25 03:25:50;;;;;;;;;22.00;18.00;25.00;32.50;;;;;;110323;1254;49157;-67
2023/02/25 03:28:26;;;;;;;;;19.00;18.00;24.90;32.50;;;;;;110436;1254;46377;-66
2023/02/25 03:31:22;;;;;;;;;25.00;20.33;24.90;32.50;;;;;;110185;1250;55439;-67
2023/02/25 03:33:52;;;;;;;;;21.00;20.00;24.80;32.70;;;;;;110199;1250;53817;-66
2023/02/25 03:36:35;;;;;;;;;19.00;18.00;24.80;32.80;;;;;;109991;1254;49604;-65
2023/02/25 03:39:10;;;;;;;;;19.00;18.00;24.70;33.20;;;;;;110169;1250;50062;-65
2023/02/25 03:41:40;;;;;;;;;20.00;19.00;24.60;32.60;;;;;;110087;1252;46813;-67
2023/02/25 03:44:14;;;;;;;;;19.00;18.00;24.60;32.60;;;;;;110165;1250;56266;-68
2023/02/25 03:46:43;;;;;;;;;21.00;18.00;24.60;32.70;;;;;;110322;1250;53897;-66
2023/02/25 03:49:15;;;;;;;;;22.00;20.00;24.50;32.70;;;;;;110177;1250;50692;-67
2023/02/25 03:51:45;;;;;;;;;23.00;19.00;24.50;32.70;;;;;;110219;1250;49731;-65
2023/02/25 03:54:15;;;;;;;;;21.00;18.00;24.40;32.70;;;;;;110201;1254;45720;-66
2023/02/25 03:56:44;;;;;;;;;21.33;18.33;24.40;33.00;;;;;;110010;1254;56943;-66
2023/02/25 03:59:11;;;;;;;;;19.67;18.00;24.30;32.80;;;;;;110061;1255;53726;-67
2023/02/25 04:01:40;;;;;;;;;23.50;20.50;24.20;32.90;;;;;;110189;1250;49898;-66
2023/02/25 04:04:07;;;;;;;;;20.00;18.00;24.20;32.80;;;;;;110228;1254;49401;-66
2023/02/25 04:06:33;;;;;;;;;20.00;18.00;24.10;32.80;;;;;;109922;1249;45987;-68
2023/02/25 04:09:01;;;;;;;;;19.00;18.00;24.10;32.90;;;;;;110124;1250;56181;-68
2023/02/25 04:11:27;;;;;;;;;20.00;15.00;24.10;32.90;;;;;;110183;1250;54341;-68
2023/02/25 04:13:55;;;;;;;;;18.00;15.00;24.00;33.10;;;;;;110166;1254;49650;-68
2023/02/25 04:16:21;;;;;;;;;20.00;19.00;24.00;33.50;;;;;;109913;1250;49087;-67
2023/02/25 04:18:48;;;;;;;;;22.50;21.00;23.90;32.90;;;;;;110160;1254;46003;-67
2023/02/25 04:21:31;;;;;;;;;21.00;18.00;23.90;33.00;;;;;;110041;1250;56669;-68
2023/02/25 04:23:58;;;;;;;;;21.00;16.00;23.90;33.00;;;;;;110015;1256;53450;-68
2023/02/25 04:26:26;;;;;;;;;17.00;16.00;23.80;33.00;;;;;;109978;1250;49383;-66
2023/02/25 04:28:53;;;;;;;;;23.00;22.00;23.80;33.10;;;;;;110182;1250;49206;-67
2023/02/25 04:31:20;;;;;;;;;25.00;20.00;23.80;33.30;;;;;;110296;1250;45401;-68
2023/02/25 04:33:48;;;;;;;;;21.50;19.00;23.70;33.00;;;;;;110252;1250;55015;-68
2023/02/25 04:36:30;;;;;;;;;20.00;17.50;23.70;33.10;;;;;;109970;1254;54102;-67
2023/02/25 04:39:00;;;;;;;;;18.00;14.50;23.70;33.10;;;;;;110254;1254;49085;-67
2023/02/25 04:41:30;;;;;;;;;17.00;15.50;23.60;33.10;;;;;;110275;1254;50496;-67
2023/02/25 04:43:57;;;;;;;;;20.00;16.00;23.60;33.10;;;;;;110297;1254;45972;-67
2023/02/25 04:46:24;;;;;;;;;22.00;19.00;23.60;33.10;;;;;;110628;1254;56416;-68
2023/02/25 04:48:51;;;;;;;;;17.00;16.00;23.60;33.20;;;;;;110295;1254;53725;-67
2023/02/25 04:51:19;;;;;;;;;20.50;18.50;23.60;33.10;;;;;;110192;1250;49486;-66
2023/02/25 04:53:47;;;;;;;;;19.00;18.00;23.60;33.20;;;;;;110039;1253;49518;-67
2023/02/25 04:56:14;;;;;;;;;19.00;18.00;23.50;33.10;;;;;;109938;1254;46131;-66
2023/02/25 04:58:42;;;;;;;;;19.67;18.00;23.50;33.20;;;;;;110187;1250;56288;-66
2023/02/25 05:01:10;;;;;;;;;20.00;18.67;23.50;33.20;;;;;;110079;1250;54949;-68
2023/02/25 05:03:37;;;;;;;;;25.00;19.00;23.40;33.20;;;;;;110010;1256;49276;-67
2023/02/25 05:06:05;;;;;;;;;16.67;15.67;23.40;33.20;;;;;;109950;1253;49346;-66
2023/02/25 05:08:33;;;;;;;;;21.00;20.00;23.30;33.20;;;;;;110220;1251;45696;-68
2023/02/25 05:11:01;;;;;;;;;21.00;18.00;23.30;33.20;;;;;;110210;1254;55124;-66
2023/02/25 05:13:28;;;;;;;;;21.50;20.00;23.30;33.30;;;;;;110334;1250;53951;-66
2023/02/25 05:16:11;;;;;;;;;18.33;16.00;23.30;33.30;;;;;;110371;1250;50417;-66
2023/02/25 05:18:40;;;;;;;;;23.00;21.00;23.30;33.40;;;;;;110166;1253;53976;-69
2023/02/25 05:21:09;;;;;;;;;20.00;16.00;23.20;33.30;;;;;;110321;1254;45421;-71
2023/02/25 05:23:35;;;;;;;;;22.50;19.00;23.30;33.60;;;;;;110360;1254;56209;-70
2023/02/25 05:26:03;;;;;;;;;23.00;20.00;23.20;33.40;;;;;;110106;1254;53597;-68
2023/02/25 05:28:31;;;;;;;;;17.25;16.00;23.20;33.50;;;;;;110094;1254;49087;-69
2023/02/25 05:30:58;;;;;;;;;24.00;21.00;23.20;33.40;;;;;;110418;1254;50832;-69
2023/02/25 05:33:26;;;;;;;;;19.00;18.00;23.10;33.30;;;;;;110374;1254;46204;-68
2023/02/25 05:35:52;;;;;;;;;20.50;18.00;23.10;33.40;;;;;;110346;1254;56865;-68
2023/02/25 05:38:20;;;;;;;;;21.00;18.00;23.00;33.40;;;;;;110232;1250;53472;-68
2023/02/25 05:40:47;;;;;;;;;18.50;17.00;23.00;33.60;;;;;;110411;1250;48982;-69
2023/02/25 05:43:13;;;;;;;;;20.00;19.00;23.00;33.90;;;;;;110330;1251;50477;-69
2023/02/25 05:45:40;;;;;;;;;19.00;17.00;23.00;33.50;;;;;;110363;1254;46734;-69
2023/02/25 05:48:07;;;;;;;;;20.00;18.00;23.00;33.50;;;;;;110161;1254;55074;-68
2023/02/25 05:50:40;;;;;;;;;19.00;16.00;22.90;33.50;;;;;;110222;1254;54200;-68
2023/02/25 05:53:08;;;;;;;;;22.00;18.00;22.90;33.70;;;;;;110355;1254;49412;-67
2023/02/25 05:55:40;;;;;;;;;21.00;19.00;22.90;33.60;;;;;;110131;1254;50380;-69
2023/02/25 05:58:07;;;;;;;;;19.00;18.00;22.80;33.50;;;;;;110450;1250;45157;-68
2023/02/25 06:00:35;;;;;;;;;18.00;16.00;22.80;33.40;;;;;;110142;1250;55246;-68
2023/02/25 06:03:02;;;;;;;;;23.25;20.75;22.80;33.50;;;;;;110381;1254;53921;-66
2023/02/25 06:05:29;;;;;;;;;19.67;17.33;22.80;33.50;;;;;;110303;1254;49229;-67
2023/02/25 06:07:57;;;;;;;;;19.25;18.00;22.80;33.70;;;;;;110133;1254;49667;-67
2023/02/25 06:10:25;;;;;;;;;19.00;16.00;22.80;33.60;;;;;;110376;1250;46109;-70
2023/02/25 06:12:52;;;;;;;;;19.50;17.00;22.80;33.60;;;;;;110416;1254;56865;-69
2023/02/25 06:15:19;;;;;;;;;18.00;17.00;22.70;33.50;;;;;;110390;1250;54611;-67
2023/02/25 06:17:46;;;;;;;;;18.67;17.33;22.80;33.70;;;;;;110142;1250;50261;-67
2023/02/25 06:20:15;;;;;;;;;18.00;17.00;22.70;33.60;;;;;;110342;1250;49142;-67
2023/02/25 06:22:42;;;;;;;;;22.00;18.00;22.80;33.70;;;;;;110147;1250;45885;-67
2023/02/25 06:25:09;;;;;;;;;21.50;17.00;22.80;33.70;;;;;;110374;1254;55208;-68
2023/02/25 06:27:36;;;;;;;;;19.00;16.67;22.90;33.80;;;;;;110188;1250;53717;-67
2023/02/25 06:30:04;;;;;;;;;19.00;17.50;23.00;33.80;;;;;;110272;1254;50317;-67
2023/02/25 06:32:31;;;;;;;;;19.00;16.00;23.00;34.30;;;;;;110327;1254;49400;-68
2023/02/25 06:34:58;;;;;;;;;17.67;16.67;23.10;33.70;;;;;;109382;1254;1246867;-68
2023/02/25 06:37:25;;;;;;;;;16.25;15.00;23.20;33.70;;;;;;109978;1253;56280;-68
2023/02/25 06:39:53;;;;;;;;;21.00;19.00;23.30;33.70;;;;;;110184;1250;53917;-70
2023/02/25 06:42:19;;;;;;;;;22.33;19.67;23.50;33.70;;;;;;110171;1254;49103;-70
2023/02/25 06:44:46;;;;;;;;;30.50;24.50;23.60;34.90;;;;;;110110;1254;49379;-70
2023/02/25 06:47:13;;;;;;;;;26.00;22.33;23.70;35.40;;;;;;109908;1250;45697;-68
2023/02/25 06:49:41;;;;;;;;;30.50;25.50;23.80;36.10;;;;;;110126;1250;55966;-69
2023/02/25 19:13:56;;;;;;;;;8.50;7.50;26.20;33.70;;;;;;107191;1285;50366;-63
2023/02/25 19:16:22;;;;;;;;;11.67;10.67;26.30;33.40;;;;;;109166;1261;44884;-62
2023/02/25 19:18:49;;;;;;;;;13.50;11.00;26.40;33.60;;;;;;109199;1265;54878;-62
2023/02/25 19:21:19;;;;;;;;;11.33;10.33;26.30;33.40;;;;;;109067;1263;53525;-61
2023/02/25 19:23:49;;;;;;;;;11.00;9.50;26.20;33.40;;;;;;109101;1263;50054;-62
2023/02/25 19:26:15;;;;;;;;;10.00;9.00;26.10;33.60;;;;;;109184;1265;49789;-61
2023/02/25 19:28:41;;;;;;;;;12.33;11.33;26.00;33.50;;;;;;109015;1267;45360;-63
2023/02/25 19:31:08;;;;;;;;;10.00;9.00;26.00;33.60;;;;;;109174;1259;55050;-62
2023/02/25 19:33:34;;;;;;;;;12.00;10.50;25.90;33.80;;;;;;109349;1262;53869;-62
2023/02/25 19:36:02;;;;;;;;;11.00;8.00;25.90;33.60;;;;;;109130;1260;49988;-63
2023/02/25 19:38:28;;;;;;;;;12.00;11.00;25.90;33.80;;;;;;109190;1261;49304;-62
2023/02/25 19:41:00;;;;;;;;;11.00;9.00;26.00;33.80;;;;;;109258;1262;44419;-62
2023/02/25 19:43:26;;;;;;;;;10.00;9.00;26.00;33.60;;;;;;109887;1254;54363;-62
2023/02/25 19:45:53;;;;;;;;;12.00;10.00;26.00;33.70;;;;;;109759;1254;54946;-62
2023/02/25 19:48:19;;;;;;;;;11.67;10.67;26.10;33.60;;;;;;109871;1254;49424;-63
2023/02/25 19:50:45;;;;;;;;;11.00;9.00;26.20;33.60;;;;;;109770;1253;49714;-62
2023/02/25 19:53:12;;;;;;;;;12.00;9.00;26.20;33.60;;;;;;109871;1255;45270;-64
2023/02/25 19:55:38;;;;;;;;;12.50;10.00;26.30;33.60;;;;;;109810;1259;54823;-63
2023/02/25 19:58:05;;;;;;;;;11.75;10.75;26.30;33.80;;;;;;109785;1260;54118;-62
2023/02/25 20:00:31;;;;;;;;;10.00;9.00;26.40;33.60;;;;;;109779;1257;50129;-62
2023/02/25 20:02:57;;;;;;;;;10.25;9.00;26.50;33.80;;;;;;109883;1260;49314;-64
2023/02/25 20:05:24;;;;;;;;;10.75;9.75;26.60;33.60;;;;;;109867;1253;45249;-63
2023/02/25 20:07:50;;;;;;;;;13.00;9.00;26.70;33.70;;;;;;109627;1256;55532;-62
2023/02/25 20:10:17;;;;;;;;;10.00;9.00;26.80;33.60;;;;;;109599;1255;53733;-60
2023/02/25 20:12:44;;;;;;;;;10.00;9.00;26.90;33.60;;;;;;109777;1257;49552;-61
2023/02/25 20:15:12;;;;;;;;;10.00;9.00;27.00;33.60;;;;;;109738;1257;49187;-61
2023/02/25 20:17:40;;;;;;;;;9.25;8.25;27.10;33.50;;;;;;109720;1253;44729;-61
2023/02/25 20:20:08;;;;;;;;;11.50;10.50;27.20;33.60;;;;;;109872;1258;54536;-61
2023/02/25 20:22:35;;;;;;;;;10.00;8.67;27.20;33.60;;;;;;109798;1257;53906;-61
2023/02/25 20:25:02;;;;;;;;;9.00;8.00;27.30;33.70;;;;;;109728;1253;49064;-61
2023/02/25 20:27:29;;;;;;;;;11.00;9.67;27.50;33.50;;;;;;109746;1253;49304;-61
2023/02/25 20:29:55;;;;;;;;;10.67;7.00;27.50;33.40;;;;;;109762;1253;44649;-60
2023/02/25 20:32:21;;;;;;;;;10.00;9.00;27.60;33.40;;;;;;109730;1256;55064;-61
2023/02/25 20:34:48;;;;;;;;;9.00;8.00;27.70;33.40;;;;;;109694;1256;54083;-61
2023/02/25 20:37:19;;;;;;;;;9.33;8.67;27.80;33.30;;;;;;109753;1257;49809;-61
2023/02/25 20:39:53;;;;;;;;;12.00;9.00;27.90;33.30;;;;;;109799;1256;48755;-61
2023/02/25 20:42:26;;;;;;;;;9.00;8.00;28.00;33.30;;;;;;109824;1257;44654;-62
2023/02/25 20:44:53;;;;;;;;;9.00;8.00;28.10;33.40;;;;;;109794;1257;55132;-64
2023/02/25 20:47:20;;;;;;;;;11.00;9.00;28.20;33.20;;;;;;109730;1255;53614;-61
2023/02/25 20:49:48;;;;;;;;;10.00;9.00;28.30;33.10;;;;;;109748;1254;49355;-61
2023/02/25 20:52:15;;;;;;;;;11.00;10.00;28.30;32.90;;;;;;109875;1254;49158;-61
2023/02/25 20:54:42;;;;;;;;;9.00;8.00;28.40;33.20;;;;;;109783;1253;44546;-61
2023/02/25 20:57:11;;;;;;;;;13.00;10.00;28.50;33.10;;;;;;109745;1253;55155;-61
2023/02/25 20:59:37;;;;;;;;;9.50;8.50;28.50;33.00;;;;;;109769;1259;54087;-60
2023/02/25 21:02:03;;;;;;;;;10.00;9.00;28.60;33.20;;;;;;109863;1257;49756;-61
2023/02/25 21:04:29;;;;;;;;;11.67;9.33;28.60;32.90;;;;;;109698;1254;49180;-60
2023/02/25 21:06:55;;;;;;;;;11.50;10.50;28.60;32.90;;;;;;109701;1255;44427;-61
2023/02/25 21:09:22;;;;;;;;;10.67;9.67;28.60;32.90;;;;;;109697;1257;54469;-62
2023/02/25 21:11:48;;;;;;;;;10.00;9.00;28.60;32.80;;;;;;109722;1257;54727;-60
2023/02/25 21:14:14;;;;;;;;;9.00;8.00;28.60;32.80;;;;;;109783;1257;49333;-60
2023/02/25 21:16:41;;;;;;;;;11.00;9.00;28.60;32.80;;;;;;109748;1253;48898;-60
2023/02/25 21:19:07;;;;;;;;;10.00;9.00;28.60;32.70;;;;;;109762;1253;44505;-61
2023/02/25 21:21:37;;;;;;;;;9.00;8.00;28.60;32.70;;;;;;109759;1257;55496;-60
2023/02/25 21:24:05;;;;;;;;;9.50;8.50;28.50;32.70;;;;;;109760;1253;54148;-60
2023/02/25 21:26:31;;;;;;;;;11.00;9.00;28.50;32.60;;;;;;109889;1253;49671;-60
2023/02/25 21:28:58;;;;;;;;;10.00;9.00;28.50;32.80;;;;;;109825;1257;49388;-60
2023/02/25 21:31:25;;;;;;;;;9.50;9.00;28.50;32.60;;;;;;109674;1256;45270;-60
2023/02/25 21:33:51;;;;;;;;;9.33;8.33;28.40;32.60;;;;;;109778;1253;54372;-61
2023/02/25 21:36:17;;;;;;;;;11.00;10.00;28.40;32.60;;;;;;109763;1254;53688;-62
2023/02/25 21:38:43;;;;;;;;;12.50;11.00;28.30;32.70;;;;;;109748;1257;49634;-61
2023/02/25 21:41:12;;;;;;;;;9.00;8.00;28.30;32.60;;;;;;109748;1253;49032;-60
2023/02/25 21:43:39;;;;;;;;;12.33;11.00;28.20;32.70;;;;;;109831;1253;46373;-61
2023/02/25 21:46:09;;;;;;;;;10.00;8.00;28.20;32.60;;;;;;109814;1254;54397;-62
2023/02/25 21:48:36;;;;;;;;;9.00;8.00;28.10;32.50;;;;;;109804;1258;54179;-60
2023/02/25 21:51:03;;;;;;;;;11.00;10.00;28.10;32.50;;;;;;109774;1254;50899;-61
2023/02/25 21:53:29;;;;;;;;;10.00;9.00;28.00;32.50;;;;;;109798;1254;49671;-61
2023/02/25 21:56:05;;;;;;;;;10.50;9.50;28.00;32.50;;;;;;109819;1253;45374;-61
2023/02/25 21:58:32;;;;;;;;;10.00;9.00;27.90;32.70;;;;;;109807;1257;55102;-61
2023/02/25 22:01:13;;;;;;;;;10.50;9.00;27.80;32.50;;;;;;109736;1253;54259;-59
2023/02/25 22:03:40;;;;;;;;;10.33;9.00;27.80;32.70;;;;;;109747;1255;50912;-60
2023/02/25 22:06:07;;;;;;;;;9.50;9.00;27.70;32.50;;;;;;109755;1254;49659;-61
2023/02/25 22:08:33;;;;;;;;;12.00;11.00;27.70;32.50;;;;;;109809;1258;44265;-60
2023/02/25 22:10:59;;;;;;;;;11.50;10.00;27.60;32.60;;;;;;109820;1253;54235;-60
2023/02/25 22:13:31;;;;;;;;;11.00;10.00;27.50;32.50;;;;;;109924;1253;53730;-61
2023/02/25 22:16:00;;;;;;;;;12.00;9.00;27.50;32.50;;;;;;109971;1253;49834;-60
2023/02/25 22:18:30;;;;;;;;;9.00;8.00;27.40;32.40;;;;;;109978;1253;50320;-60
2023/02/25 22:21:10;;;;;;;;;11.00;9.00;27.40;32.40;;;;;;109955;1253;44671;-61
2023/02/25 22:23:38;;;;;;;;;11.00;10.00;27.30;32.40;;;;;;109928;1253;54488;-61
2023/02/25 22:26:06;;;;;;;;;12.50;11.50;27.20;32.40;;;;;;109879;1253;54654;-61
2023/02/25 22:28:35;;;;;;;;;10.00;9.00;27.10;32.30;;;;;;109843;1254;50025;-60
2023/02/25 22:31:01;;;;;;;;;13.00;12.00;27.10;32.30;;;;;;109866;1253;49641;-61
2023/02/25 22:33:30;;;;;;;;;11.00;9.00;27.00;32.30;;;;;;109910;1254;44866;-61
2023/02/25 22:35:59;;;;;;;;;11.00;9.33;26.90;32.30;;;;;;109982;1253;54950;-61
2023/02/25 22:38:29;;;;;;;;;10.00;9.00;26.90;32.30;;;;;;109962;1257;53877;-61
2023/02/25 22:40:56;;;;;;;;;10.00;9.00;26.80;32.30;;;;;;109793;1257;49077;-61
2023/02/25 22:43:22;;;;;;;;;12.50;11.50;26.70;32.30;;;;;;109800;1257;49417;-61
2023/02/25 22:45:49;;;;;;;;;11.00;10.00;26.70;32.50;;;;;;109645;1260;44985;-61
2023/02/25 22:48:15;;;;;;;;;11.00;10.00;26.60;32.30;;;;;;109786;1257;55304;-62
2023/02/25 22:50:46;;;;;;;;;10.00;9.00;26.50;32.30;;;;;;109658;1255;53409;-60
2023/02/25 22:53:13;;;;;;;;;13.50;10.50;26.50;32.30;;;;;;109844;1254;49688;-60
2023/02/25 22:55:39;;;;;;;;;10.00;9.00;26.50;32.40;;;;;;109606;1260;49074;-60
2023/02/25 22:58:06;;;;;;;;;10.00;9.00;26.40;32.30;;;;;;109876;1257;44791;-60
2023/02/25 23:00:39;;;;;;;;;11.67;9.33;26.30;32.40;;;;;;109818;1257;54608;-61
2023/02/25 23:03:06;;;;;;;;;14.00;13.00;26.30;32.30;;;;;;109860;1253;54109;-60
2023/02/25 23:05:33;;;;;;;;;10.00;9.00;26.20;32.20;;;;;;109787;1257;49664;-60
2023/02/25 23:08:00;;;;;;;;;16.67;12.00;26.20;32.40;;;;;;109815;1253;49223;-60
2023/02/25 23:10:27;;;;;;;;;10.00;9.00;26.10;32.20;;;;;;109876;1254;45225;-60
2023/02/25 23:12:58;;;;;;;;;13.00;11.00;26.10;32.40;;;;;;109855;1257;54493;-60
2023/02/25 23:15:27;;;;;;;;;12.00;11.00;26.00;32.20;;;;;;109879;1253;54045;-61
2023/02/25 23:17:54;;;;;;;;;11.25;10.00;25.90;32.20;;;;;;109804;1254;50238;-60
2023/02/25 23:20:22;;;;;;;;;13.00;11.50;25.90;32.20;;;;;;109823;1254;49971;-60
2023/02/25 23:22:51;;;;;;;;;11.50;9.00;25.80;32.20;;;;;;109760;1253;45201;-61
2023/02/25 23:25:18;;;;;;;;;11.50;10.50;25.80;32.20;;;;;;109921;1257;54695;-61
2023/02/25 23:27:44;;;;;;;;;13.25;12.25;25.80;32.20;;;;;;109761;1254;53519;-61
2023/02/25 23:30:11;;;;;;;;;13.00;11.00;25.70;32.20;;;;;;109778;1254;49993;-60
2023/02/25 23:32:39;;;;;;;;;12.50;10.00;25.70;32.20;;;;;;109734;1255;49820;-60
2023/02/25 23:35:09;;;;;;;;;14.00;11.00;25.60;32.20;;;;;;109772;1253;45371;-61
2023/02/25 23:37:37;;;;;;;;;14.50;13.00;25.50;32.20;;;;;;109752;1253;55086;-60
2023/02/25 23:40:06;;;;;;;;;11.00;10.00;25.50;32.20;;;;;;109789;1253;53623;-62
2023/02/25 23:42:32;;;;;;;;;15.00;12.00;25.40;32.20;;;;;;109920;1253;49832;-61
2023/02/25 23:44:59;;;;;;;;;12.33;11.00;25.40;32.30;;;;;;109779;1253;50455;-61
2023/02/25 23:47:25;;;;;;;;;15.00;13.00;25.30;32.40;;;;;;109759;1258;44609;-61
2023/02/25 23:49:52;;;;;;;;;14.00;12.50;25.30;32.50;;;;;;109832;1253;54768;-60
2023/02/25 23:52:18;;;;;;;;;11.00;10.00;25.20;32.30;;;;;;109785;1254;53501;-60
2023/02/25 23:54:44;;;;;;;;;11.67;10.67;25.20;32.40;;;;;;109809;1253;50631;-60
2023/02/25 23:57:11;;;;;;;;;10.00;9.00;25.10;32.30;;;;;;109800;1253;49578;-60
2023/02/25 23:59:37;;;;;;;;;14.00;13.00;25.10;32.40;;;;;;109759;1256;44607;-61
